createdAt,value
2023-04-15T00:01:54.096Z,99055.56
2023-04-15T00:04:29.465Z,99053.44
2023-04-15T00:06:57.201Z,99056.72
2023-04-15T00:09:24.993Z,99057.88
2023-04-15T00:11:52.687Z,99053.19
2023-04-15T00:14:20.267Z,99063.50
2023-04-15T00:16:56.185Z,99058.69
2023-04-15T00:19:25.870Z,99058.47
2023-04-15T00:21:53.479Z,99055.28
2023-04-15T00:24:21.171Z,99056.66
2023-04-15T00:26:49.121Z,99059.94
2023-04-15T00:29:16.752Z,99052.69
2023-04-15T00:31:44.709Z,99055.03
2023-04-15T00:34:12.456Z,99046.72
2023-04-15T00:36:40.107Z,99046.72
2023-04-15T00:39:10.306Z,99038.97
2023-04-15T00:41:39.296Z,99041.44
2023-04-15T00:44:08.080Z,99043.38
2023-04-15T00:46:38.303Z,99048.78
2023-04-15T00:49:07.023Z,99048.53
2023-04-15T00:51:36.988Z,99047.59
2023-04-15T00:54:07.825Z,99048.72
2023-04-15T00:56:39.369Z,99040.06
2023-04-15T00:59:08.137Z,99038.53
2023-04-15T01:01:37.366Z,99029.38
2023-04-15T01:04:06.134Z,99041.22
2023-04-15T01:06:34.240Z,99040.41
2023-04-15T01:09:02.119Z,99035.84
2023-04-15T01:11:34.344Z,99031.84
2023-04-15T01:14:02.490Z,99031.03
2023-04-15T01:16:30.230Z,99036.41
2023-04-15T01:19:00.444Z,99031.84
2023-04-15T01:21:28.216Z,99034.78
2023-04-15T01:23:58.721Z,99030.53
2023-04-15T01:26:26.762Z,99034.94
2023-04-15T01:28:57.594Z,99034.69
2023-04-15T01:31:26.435Z,99026.84
2023-04-15T01:33:54.057Z,99035.09
2023-04-15T01:36:24.029Z,99038.69
2023-04-15T01:38:53.850Z,99031.75
2023-04-15T01:41:28.669Z,99043.09
2023-04-15T01:43:57.090Z,99040.66
2023-04-15T01:46:24.719Z,99035.81
2023-04-15T01:48:52.366Z,99043.19
2023-04-15T01:51:20.155Z,99043.69
2023-04-15T01:53:47.746Z,99037.25
2023-04-15T01:56:16.994Z,99041.06
2023-04-15T01:58:44.583Z,99041.06
2023-04-15T02:01:13.147Z,99040.59
2023-04-15T02:03:40.790Z,99046.78
2023-04-15T02:06:08.407Z,99047.91
2023-04-15T02:08:38.010Z,99050.16
2023-04-15T02:11:05.755Z,99047.53
2023-04-15T02:13:33.391Z,99042.97
2023-04-15T02:16:01.099Z,99054.56
2023-04-15T02:18:28.668Z,99045.16
2023-04-15T02:20:57.202Z,99041.44
2023-04-15T02:23:24.890Z,99048.34
2023-04-15T02:25:55.020Z,99059.62
2023-04-15T02:28:23.079Z,99055.37
2023-04-15T02:30:54.371Z,99049.72
2023-04-15T02:33:22.654Z,99064.84
2023-04-15T02:35:50.848Z,99061.91
2023-04-15T02:38:18.400Z,99061.44
2023-04-15T02:40:46.202Z,99059.78
2023-04-15T02:43:13.807Z,99057.66
2023-04-15T02:45:43.590Z,99058.81
2023-04-15T02:48:13.952Z,99052.91
2023-04-15T02:50:42.809Z,99054.31
2023-04-15T02:53:10.549Z,99059.12
2023-04-15T02:55:38.142Z,99051.03
2023-04-15T02:58:05.802Z,99052.09
2023-04-15T03:00:33.449Z,99053.50
2023-04-15T03:03:04.242Z,99053.50
2023-04-15T03:05:32.032Z,99056.75
2023-04-15T03:08:01.126Z,99055.37
2023-04-15T03:10:31.675Z,99059.94
2023-04-15T03:12:59.248Z,99058.88
2023-04-15T03:15:29.709Z,99056.19
2023-04-15T03:17:57.366Z,99054.06
2023-04-15T03:20:25.105Z,99055.44
2023-04-15T03:22:54.861Z,99053.81
2023-04-15T03:25:22.662Z,99044.66
2023-04-15T03:27:50.246Z,99047.91
2023-04-15T03:30:18.102Z,99044.41
2023-04-15T03:32:48.094Z,99054.13
2023-04-15T03:35:15.827Z,99056.00
2023-04-15T03:37:43.487Z,99053.06
2023-04-15T03:40:11.542Z,99052.25
2023-04-15T03:42:39.120Z,99046.59
2023-04-15T03:45:07.681Z,99048.22
2023-04-15T03:47:35.302Z,99044.16
2023-04-15T03:50:05.400Z,99052.50
2023-04-15T03:52:32.997Z,99046.03
2023-04-15T03:55:00.789Z,99046.78
2023-04-15T03:57:28.397Z,99049.97
2023-04-15T03:59:55.986Z,99050.78
2023-04-15T04:02:24.095Z,99043.69
2023-04-15T04:04:52.209Z,99045.00
2023-04-15T04:07:19.869Z,99045.59
2023-04-15T04:09:47.576Z,99044.19
2023-04-15T04:12:15.299Z,99046.41
2023-04-15T04:14:42.938Z,99046.66
2023-04-15T04:17:10.636Z,99049.84
2023-04-15T04:19:38.302Z,99041.81
2023-04-15T04:22:05.917Z,99043.22
2023-04-15T04:24:35.876Z,99051.03
2023-04-15T04:27:03.473Z,99052.41
2023-04-15T04:29:31.296Z,99052.25
2023-04-15T04:31:58.916Z,99047.78
2023-04-15T04:34:28.077Z,99049.72
2023-04-15T04:36:55.666Z,99047.34
2023-04-15T04:39:23.262Z,99055.00
2023-04-15T04:41:52.221Z,99050.16
2023-04-15T04:44:22.302Z,99041.31
2023-04-15T04:46:49.895Z,99043.59
2023-04-15T04:49:19.811Z,99043.66
2023-04-15T04:51:48.485Z,99046.44
2023-04-15T04:54:16.177Z,99053.19
2023-04-15T04:56:43.815Z,99053.25
2023-04-15T04:59:11.368Z,99056.59
2023-04-15T05:01:42.109Z,99061.25
2023-04-15T05:04:09.924Z,99055.13
2023-04-15T05:06:39.859Z,99043.34
2023-04-15T05:09:07.451Z,99051.16
2023-04-15T05:11:35.102Z,99054.88
2023-04-15T05:14:02.674Z,99050.06
2023-04-15T05:16:30.311Z,99052.62
2023-04-15T05:18:57.886Z,99055.81
2023-04-15T05:21:25.988Z,99056.97
2023-04-15T05:23:55.936Z,99055.16
2023-04-15T05:26:24.585Z,99054.53
2023-04-15T05:28:52.160Z,99060.69
2023-04-15T05:31:22.238Z,99051.91
2023-04-15T05:33:49.980Z,99062.94
2023-04-15T05:36:17.574Z,99059.66
2023-04-15T05:38:45.187Z,99066.78
2023-04-15T05:41:12.927Z,99059.97
2023-04-15T05:43:40.645Z,99067.22
2023-04-15T05:46:08.672Z,99066.75
2023-04-15T05:48:36.290Z,99072.09
2023-04-15T05:51:03.874Z,99069.13
2023-04-15T05:53:31.992Z,99075.38
2023-04-15T05:55:59.622Z,99073.81
2023-04-15T05:58:28.672Z,99082.94
2023-04-15T06:00:56.681Z,99075.06
2023-04-15T06:03:26.474Z,99079.47
2023-04-15T06:05:54.344Z,99080.97
2023-04-15T06:08:22.169Z,99083.53
2023-04-15T06:10:49.800Z,99089.94
2023-04-15T06:13:18.012Z,99091.50
2023-04-15T06:15:45.654Z,99093.69
2023-04-15T06:18:13.234Z,99097.16
2023-04-15T06:20:43.205Z,99098.78
2023-04-15T06:23:10.785Z,99093.97
2023-04-15T06:25:38.376Z,99094.00
2023-04-15T06:28:06.209Z,99095.25
2023-04-15T06:30:33.829Z,99090.53
2023-04-15T06:33:01.609Z,99094.03
2023-04-15T06:35:29.301Z,99096.47
2023-04-15T06:37:56.864Z,99105.12
2023-04-15T06:40:26.547Z,99103.78
2023-04-15T06:42:54.200Z,99099.84
2023-04-15T06:45:24.629Z,99103.59
2023-04-15T06:47:52.272Z,99104.69
2023-04-15T06:50:19.996Z,99106.03
2023-04-15T06:52:50.187Z,99106.09
2023-04-15T06:55:17.877Z,99111.03
2023-04-15T06:57:45.534Z,99110.50
2023-04-15T07:00:13.750Z,99110.69
2023-04-15T07:02:44.047Z,99115.69
2023-04-15T07:05:11.683Z,99115.06
2023-04-15T07:07:39.246Z,99116.16
2023-04-15T07:10:07.768Z,99105.69
2023-04-15T07:12:35.901Z,99108.38
2023-04-15T07:15:03.544Z,99110.69
2023-04-15T07:17:31.207Z,99106.63
2023-04-15T07:19:58.912Z,99110.78
2023-04-15T07:22:27.618Z,99115.06
2023-04-15T07:24:55.192Z,99116.47
2023-04-15T07:27:22.738Z,99118.84
2023-04-15T07:29:52.899Z,99119.41
2023-04-15T07:32:21.078Z,99123.19
2023-04-15T07:34:51.075Z,99126.41
2023-04-15T07:37:21.295Z,99119.66
2023-04-15T07:39:49.046Z,99124.41
2023-04-15T07:42:16.662Z,99122.72
2023-04-15T07:44:44.294Z,99126.50
2023-04-15T07:47:14.182Z,99122.66
2023-04-15T07:49:43.291Z,99120.84
2023-04-15T07:52:11.042Z,99125.50
2023-04-15T07:54:38.789Z,99125.91
2023-04-15T07:57:06.596Z,99120.81
2023-04-15T07:59:34.349Z,99111.53
2023-04-15T08:02:02.640Z,99120.97
2023-04-15T08:04:34.173Z,99118.22
2023-04-15T08:07:02.050Z,99121.41
2023-04-15T08:09:29.600Z,99123.31
2023-04-15T08:11:57.643Z,99129.94
2023-04-15T08:14:26.907Z,99131.69
2023-04-15T08:16:54.477Z,99128.59
2023-04-15T08:19:22.970Z,99136.03
2023-04-15T08:21:51.162Z,99130.50
2023-04-15T08:24:18.952Z,99134.06
2023-04-15T08:26:46.954Z,99139.87
2023-04-15T08:29:15.008Z,99135.16
2023-04-15T08:31:42.706Z,99142.88
2023-04-15T08:34:10.390Z,99152.97
2023-04-15T08:36:40.402Z,99151.34
2023-04-15T08:39:10.190Z,99147.81
2023-04-15T08:41:49.017Z,99145.88
2023-04-15T08:44:16.642Z,99148.63
2023-04-15T08:46:44.705Z,99150.38
2023-04-15T08:49:13.764Z,99153.13
2023-04-15T08:51:45.408Z,99148.97
2023-04-15T08:54:16.169Z,99148.84
2023-04-15T08:56:44.030Z,99158.09
2023-04-15T08:59:12.474Z,99152.28
2023-04-15T09:01:41.020Z,99152.88
2023-04-15T09:04:09.362Z,99162.78
2023-04-15T09:06:36.963Z,99156.94
2023-04-15T09:09:04.592Z,99158.47
2023-04-15T09:11:34.683Z,99164.16
2023-04-15T09:14:02.393Z,99154.56
2023-04-15T09:16:30.178Z,99156.28
2023-04-15T09:18:57.739Z,99153.44
2023-04-15T09:21:26.074Z,99158.56
2023-04-15T09:24:03.841Z,99169.59
2023-04-15T09:26:40.259Z,99162.87
2023-04-15T09:29:09.477Z,99176.75
2023-04-15T09:31:41.840Z,99173.88
2023-04-15T09:34:09.521Z,99167.75
2023-04-15T09:36:54.115Z,99176.75
2023-04-15T09:39:24.084Z,99176.25
2023-04-15T09:42:12.115Z,99170.25
2023-04-15T09:44:39.709Z,99171.28
2023-04-15T09:47:09.555Z,99168.59
2023-04-15T09:49:37.225Z,99175.69
2023-04-15T09:52:06.551Z,99168.09
2023-04-15T09:54:38.548Z,99174.09
2023-04-15T09:57:08.216Z,99179.25
2023-04-15T09:59:35.804Z,99178.41
2023-04-15T10:02:06.487Z,99171.91
2023-04-15T10:04:37.503Z,99171.94
2023-04-15T10:07:09.545Z,99175.75
2023-04-15T10:09:37.743Z,99182.22
2023-04-15T10:12:10.442Z,99192.50
2023-04-15T10:14:39.561Z,99190.91
2023-04-15T10:17:09.906Z,99187.38
2023-04-15T10:19:42.562Z,99188.47
2023-04-15T10:22:10.828Z,99192.84
2023-04-15T10:24:41.329Z,99194.75
2023-04-15T10:27:14.593Z,99189.28
2023-04-15T10:29:42.279Z,99195.09
2023-04-15T10:32:11.359Z,99192.66
2023-04-15T10:34:41.968Z,99189.56
2023-04-15T10:37:12.026Z,99186.56
2023-04-15T10:39:45.443Z,99195.97
2023-04-15T10:42:21.895Z,99192.94
2023-04-15T10:44:57.653Z,99199.25
2023-04-15T10:47:25.641Z,99200.97
2023-04-15T10:50:00.446Z,99207.25
2023-04-15T10:52:30.864Z,99204.25
2023-04-15T10:55:05.149Z,99216.19
2023-04-15T10:57:39.992Z,99206.66
2023-04-15T11:00:11.423Z,99206.13
2023-04-15T11:02:43.553Z,99202.56
2023-04-15T11:05:13.361Z,99210.47
2023-04-15T11:07:41.070Z,99220.25
2023-04-15T11:10:14.578Z,99209.09
2023-04-15T11:12:43.139Z,99221.81
2023-04-15T11:15:34.519Z,99211.78
2023-04-15T11:18:17.058Z,99208.25
2023-04-15T11:20:46.582Z,99211.81
2023-04-15T11:23:16.980Z,99219.38
2023-04-15T11:25:44.843Z,99215.28
2023-04-15T11:28:14.467Z,99211.41
2023-04-15T11:30:43.700Z,99213.22
2023-04-15T11:33:13.882Z,99205.81
2023-04-15T11:35:44.804Z,99204.72
2023-04-15T11:38:14.376Z,99203.78
2023-04-15T11:40:46.164Z,99207.75
2023-04-15T11:43:22.192Z,99220.25
2023-04-15T11:45:55.901Z,99208.22
2023-04-15T11:48:25.840Z,99221.09
2023-04-15T11:50:57.155Z,99218.47
2023-04-15T11:53:28.340Z,99221.22
2023-04-15T11:55:55.981Z,99218.56
2023-04-15T11:58:26.650Z,99230.47
2023-04-15T12:01:01.843Z,99220.12
2023-04-15T12:03:38.893Z,99227.47
2023-04-15T12:06:10.008Z,99225.59
2023-04-15T12:08:55.915Z,99224.97
2023-04-15T12:11:58.406Z,99220.59
2023-04-15T12:14:30.728Z,99230.00
2023-04-15T12:17:01.506Z,99229.44
2023-04-15T12:19:32.711Z,99219.97
2023-04-15T12:22:02.898Z,99221.13
2023-04-15T12:24:34.000Z,99223.97
2023-04-15T12:27:09.238Z,99227.38
2023-04-15T12:29:40.571Z,99224.16
2023-04-15T12:32:12.950Z,99229.63
2023-04-15T12:34:41.701Z,99232.41
2023-04-15T12:37:12.275Z,99226.44
2023-04-15T12:39:42.272Z,99226.28
2023-04-15T12:42:11.283Z,99227.06
2023-04-15T12:44:40.292Z,99234.16
2023-04-15T12:47:09.106Z,99232.88
2023-04-15T12:49:42.039Z,99235.94
2023-04-15T12:52:09.842Z,99228.63
2023-04-15T12:54:37.482Z,99239.75
2023-04-15T12:57:07.195Z,99245.09
2023-04-15T12:59:34.955Z,99238.84
2023-04-15T13:02:02.967Z,99247.28
2023-04-15T13:04:31.707Z,99249.16
2023-04-15T13:06:59.451Z,99236.94
2023-04-15T13:09:29.723Z,99242.34
2023-04-15T13:11:57.726Z,99251.84
2023-04-15T13:14:27.846Z,99247.53
2023-04-15T13:16:55.669Z,99250.50
2023-04-15T13:19:27.978Z,99242.84
2023-04-15T13:21:55.578Z,99242.09
2023-04-15T13:24:23.153Z,99248.91
2023-04-15T13:26:50.755Z,99261.41
2023-04-15T13:29:20.797Z,99243.56
2023-04-15T13:31:48.425Z,99246.56
2023-04-15T13:34:18.879Z,99257.34
2023-04-15T13:36:46.520Z,99255.66
2023-04-15T13:39:16.334Z,99255.41
2023-04-15T13:41:48.510Z,99248.34
2023-04-15T13:44:16.164Z,99256.16
2023-04-15T13:46:46.308Z,99258.62
2023-04-15T13:49:13.979Z,99263.50
2023-04-15T13:51:43.971Z,99265.69
2023-04-15T13:54:11.653Z,99256.19
2023-04-15T13:56:39.312Z,99263.25
2023-04-15T13:59:08.668Z,99262.25
2023-04-15T14:01:36.852Z,99269.53
2023-04-15T14:04:04.898Z,99268.75
2023-04-15T14:06:32.897Z,99266.78
2023-04-15T14:09:00.507Z,99266.75
2023-04-15T14:11:28.366Z,99278.13
2023-04-15T14:13:55.968Z,99272.13
2023-04-15T14:16:23.868Z,99273.22
2023-04-15T14:18:51.642Z,99266.78
2023-04-15T14:21:21.841Z,99279.31
2023-04-15T14:23:49.632Z,99276.66
2023-04-15T14:26:20.365Z,99282.38
2023-04-15T14:28:49.159Z,99283.47
2023-04-15T14:31:20.052Z,99282.13
2023-04-15T14:33:50.155Z,99288.62
2023-04-15T14:36:17.891Z,99286.75
2023-04-15T14:38:47.437Z,99290.50
2023-04-15T14:41:20.744Z,99290.78
2023-04-15T14:43:50.667Z,99294.84
2023-04-15T14:46:18.294Z,99293.53
2023-04-15T14:48:47.590Z,99294.63
2023-04-15T14:51:18.172Z,99298.44
2023-04-15T14:53:54.025Z,99290.56
2023-04-15T14:56:28.237Z,99303.88
2023-04-15T14:58:58.218Z,99277.78
2023-04-15T15:01:28.179Z,99296.25
2023-04-15T15:03:56.151Z,99300.59
2023-04-15T15:06:24.065Z,99299.78
2023-04-15T15:09:57.188Z,99306.06
2023-04-15T15:12:24.776Z,99303.03
2023-04-15T15:14:56.812Z,99313.38
2023-04-15T15:18:09.314Z,99307.69
2023-04-15T15:20:39.367Z,99314.75
2023-04-15T15:23:07.320Z,99310.66
2023-04-15T15:25:35.521Z,99319.09
2023-04-15T15:28:05.872Z,99322.06
2023-04-15T15:30:33.785Z,99328.31
2023-04-15T15:33:01.419Z,99323.97
2023-04-15T15:35:29.048Z,99326.41
2023-04-15T15:37:56.664Z,99335.38
2023-04-15T15:40:26.714Z,99335.91
2023-04-15T15:43:17.382Z,99342.16
2023-04-15T15:45:51.782Z,99344.31
2023-04-15T15:48:22.052Z,99350.53
2023-04-15T15:50:50.066Z,99353.22
2023-04-15T15:53:20.800Z,99363.00
2023-04-15T15:56:22.307Z,99365.12
2023-04-15T15:59:20.053Z,99371.53
2023-04-15T16:01:48.817Z,99372.81
2023-04-15T16:04:19.349Z,99377.84
2023-04-15T16:06:49.677Z,99384.03
2023-04-15T16:09:18.731Z,99380.94
2023-04-15T16:11:46.733Z,99383.59
2023-04-15T16:14:16.916Z,99386.53
2023-04-15T16:16:44.546Z,99375.37
2023-04-15T16:19:12.318Z,99374.28
2023-04-15T16:21:39.960Z,99377.53
2023-04-15T16:24:10.190Z,99374.41
2023-04-15T16:26:38.060Z,99376.63
2023-04-15T16:29:06.019Z,99380.44
2023-04-15T16:31:38.599Z,99379.09
2023-04-15T16:34:06.860Z,99369.94
2023-04-15T16:36:40.629Z,99381.31
2023-04-15T16:39:08.497Z,99387.56
2023-04-15T16:41:38.239Z,99384.88
2023-04-15T16:44:11.602Z,99391.94
2023-04-15T16:46:41.852Z,99393.03
2023-04-15T16:49:09.802Z,99404.13
2023-04-15T16:51:38.567Z,99407.94
2023-04-15T16:54:06.231Z,99412.78
2023-04-15T16:56:38.726Z,99416.28
2023-04-15T16:59:06.365Z,99416.22
2023-04-15T17:01:36.471Z,99426.47
2023-04-15T17:04:05.681Z,99431.56
2023-04-15T17:06:33.426Z,99431.22
2023-04-15T17:09:03.643Z,99429.81
2023-04-15T17:11:32.039Z,99440.31
2023-04-15T17:14:06.104Z,99442.44
2023-04-15T17:16:33.917Z,99438.31
2023-04-15T17:19:01.507Z,99441.19
2023-04-15T17:21:34.547Z,99448.47
2023-04-15T17:24:02.167Z,99455.16
2023-04-15T17:26:29.877Z,99452.06
2023-04-15T17:28:57.538Z,99457.19
2023-04-15T17:31:29.689Z,99452.72
2023-04-15T17:34:07.415Z,99462.44
2023-04-15T17:36:40.031Z,99464.75
2023-04-15T17:39:10.640Z,99467.37
2023-04-15T17:41:40.340Z,99475.13
2023-04-15T17:44:08.464Z,99471.81
2023-04-15T17:46:36.143Z,99471.12
2023-04-15T17:49:06.793Z,99462.63
2023-04-15T17:51:34.556Z,99479.34
2023-04-15T17:54:02.318Z,99479.53
2023-04-15T17:56:30.088Z,99482.66
2023-04-15T17:59:00.530Z,99490.94
2023-04-15T18:01:28.319Z,99490.53
2023-04-15T18:03:58.193Z,99488.81
2023-04-15T18:06:29.470Z,99502.00
2023-04-15T18:08:57.119Z,99496.28
2023-04-15T18:11:27.534Z,99504.06
2023-04-15T18:13:57.258Z,99502.66
2023-04-15T18:16:27.538Z,99502.59
2023-04-15T18:18:55.492Z,99509.53
2023-04-15T18:21:23.184Z,99511.88
2023-04-15T18:23:52.098Z,99519.66
2023-04-15T18:26:19.835Z,99516.56
2023-04-15T18:28:47.471Z,99525.88
2023-04-15T18:31:17.363Z,99528.81
2023-04-15T18:33:45.374Z,99528.50
2023-04-15T18:36:13.102Z,99526.75
2023-04-15T18:38:45.933Z,99531.56
2023-04-15T18:41:13.833Z,99535.31
2023-04-15T18:43:41.524Z,99544.97
2023-04-15T18:46:11.877Z,99552.41
2023-04-15T18:48:39.622Z,99555.00
2023-04-15T18:51:07.326Z,99566.97
2023-04-15T18:53:34.921Z,99568.75
2023-04-15T18:56:05.045Z,99569.22
2023-04-15T18:59:18.127Z,99571.50
2023-04-15T19:01:29.872Z,99578.16
2023-04-15T19:03:58.279Z,99577.25
2023-04-15T19:06:26.838Z,99580.66
2023-04-15T19:08:59.176Z,99588.06
2023-04-15T19:11:27.756Z,99593.44
2023-04-15T19:13:55.663Z,99593.09
2023-04-15T19:16:23.324Z,99599.78
2023-04-15T19:18:53.496Z,99600.25
2023-04-15T19:21:21.405Z,99607.31
2023-04-15T19:23:51.563Z,99608.94
2023-04-15T19:26:21.621Z,99611.03
2023-04-15T19:28:49.301Z,99618.53
2023-04-15T19:31:16.987Z,99620.41
2023-04-15T19:33:46.949Z,99619.59
2023-04-15T19:36:14.551Z,99622.03
2023-04-15T19:38:42.241Z,99627.66
2023-04-15T19:41:10.433Z,99629.31
2023-04-15T19:43:40.504Z,99629.31
2023-04-15T19:46:08.504Z,99630.38
2023-04-15T19:48:36.803Z,99633.88
2023-04-15T19:51:04.482Z,99638.47
2023-04-15T19:53:32.074Z,99638.94
2023-04-15T19:56:01.973Z,99643.84
2023-04-15T19:58:34.472Z,99646.53
2023-04-15T20:01:05.356Z,99647.12
2023-04-15T20:03:35.177Z,99652.09
2023-04-15T20:06:03.168Z,99648.34
2023-04-15T20:08:30.727Z,99658.66
2023-04-15T20:10:58.339Z,99656.53
2023-04-15T20:13:28.303Z,99658.28
2023-04-15T20:15:55.921Z,99655.94
2023-04-15T20:18:25.756Z,99660.03
2023-04-15T20:20:53.423Z,99653.34
2023-04-15T20:23:21.066Z,99659.56
2023-04-15T20:25:48.699Z,99652.28
2023-04-15T20:28:18.150Z,99653.69
2023-04-15T20:30:47.179Z,99652.44
2023-04-15T20:33:15.387Z,99652.88
2023-04-15T20:35:43.049Z,99650.41
2023-04-15T20:38:15.266Z,99654.97
2023-04-15T20:40:43.391Z,99664.47
2023-04-15T20:43:10.954Z,99661.56
2023-04-15T20:45:39.704Z,99653.69
2023-04-15T20:48:07.726Z,99660.13
2023-04-15T20:50:35.511Z,99662.03
2023-04-15T20:53:04.885Z,99662.62
2023-04-15T20:55:32.477Z,99668.84
2023-04-15T20:58:00.217Z,99670.50
2023-04-15T21:00:28.163Z,99668.84
2023-04-15T21:02:56.002Z,99672.38
2023-04-15T21:05:23.717Z,99678.44
2023-04-15T21:07:51.400Z,99688.19
2023-04-15T21:10:19.005Z,99692.41
2023-04-15T21:12:46.650Z,99686.31
2023-04-15T21:15:14.228Z,99703.53
2023-04-15T21:17:41.875Z,99695.69
2023-04-15T21:20:12.494Z,99705.91
2023-04-15T21:22:42.559Z,99703.66
2023-04-15T21:25:10.624Z,99707.50
2023-04-15T21:27:38.221Z,99713.38
2023-04-15T21:30:06.363Z,99716.88
2023-04-15T21:32:33.979Z,99714.06
2023-04-15T21:35:01.620Z,99724.50
2023-04-15T21:37:29.257Z,99723.31
2023-04-15T21:39:56.916Z,99723.78
2023-04-15T21:42:24.782Z,99721.31
2023-04-15T21:44:52.424Z,99725.91
2023-04-15T21:47:20.238Z,99724.25
2023-04-15T21:49:48.163Z,99724.50
2023-04-15T21:52:15.741Z,99728.81
2023-04-15T21:54:43.287Z,99732.34
2023-04-15T21:57:10.905Z,99732.56
2023-04-15T21:59:38.484Z,99730.06
2023-04-15T22:02:08.402Z,99735.47
2023-04-15T22:04:36.016Z,99734.66
2023-04-15T22:07:03.700Z,99737.56
2023-04-15T22:09:33.415Z,99737.34
2023-04-15T22:12:01.033Z,99733.81
2023-04-15T22:14:29.217Z,99738.78
2023-04-15T22:16:59.439Z,99739.12
2023-04-15T22:19:29.491Z,99749.09
2023-04-15T22:21:57.055Z,99740.44
2023-04-15T22:24:38.738Z,99741.84
2023-04-15T22:27:07.916Z,99748.06
2023-04-15T22:29:37.838Z,99747.00
2023-04-15T22:32:05.504Z,99740.78
2023-04-15T22:34:35.232Z,99743.25
2023-04-15T22:37:02.836Z,99741.59
2023-04-15T22:39:30.508Z,99738.69
2023-04-15T22:41:58.122Z,99739.84
2023-04-15T22:44:25.869Z,99749.34
2023-04-15T22:46:53.500Z,99751.81
2023-04-15T22:49:21.133Z,99751.00
2023-04-15T22:51:48.826Z,99756.03
2023-04-15T22:54:16.459Z,99751.47
2023-04-15T22:56:43.999Z,99745.84
2023-04-15T22:59:13.948Z,99753.09
2023-04-15T23:01:43.997Z,99749.13
2023-04-15T23:04:25.338Z,99750.53
2023-04-15T23:06:54.031Z,99742.22
2023-04-15T23:09:23.882Z,99750.22
2023-04-15T23:11:51.562Z,99750.56
2023-04-15T23:14:19.150Z,99743.88
2023-04-15T23:16:46.726Z,99750.69
2023-04-15T23:19:14.321Z,99749.63
2023-04-15T23:21:41.895Z,99751.50
2023-04-15T23:24:09.719Z,99747.28
2023-04-15T23:26:39.830Z,99741.87
2023-04-15T23:29:09.070Z,99746.81
2023-04-15T23:31:39.323Z,99754.91
2023-04-15T23:34:06.958Z,99751.16
2023-04-15T23:36:34.569Z,99761.12
2023-04-15T23:39:02.141Z,99759.84
2023-04-15T23:41:29.759Z,99762.53
2023-04-15T23:43:57.337Z,99765.47
2023-04-15T23:46:24.981Z,99768.41
2023-04-15T23:48:52.583Z,99766.97
2023-04-15T23:51:22.605Z,99762.28
2023-04-15T23:53:53.202Z,99763.22
2023-04-15T23:56:20.963Z,99770.13
2023-04-15T23:58:48.611Z,99762.50
